sensor_id;sensor_type;location;lat;lon;timestamp;P1;durP1;ratioP1;P2;durP2;ratioP2
74634;SDS011;63140;56.306;43.984;2022-11-24T00:02:09;10.77;;;6.18;;
74634;SDS011;63140;56.306;43.984;2022-11-24T00:04:35;9.90;;;5.00;;
74634;SDS011;63140;56.306;43.984;2022-11-24T00:07:02;9.77;;;5.25;;
74634;SDS011;63140;56.306;43.984;2022-11-24T00:09:28;11.38;;;5.95;;
74634;SDS011;63140;56.306;43.984;2022-11-24T00:11:54;10.57;;;5.55;;
74634;SDS011;63140;56.306;43.984;2022-11-24T00:14:20;11.38;;;5.97;;
74634;SDS011;63140;56.306;43.984;2022-11-24T00:16:46;10.20;;;5.80;;
74634;SDS011;63140;56.306;43.984;2022-11-24T00:19:12;8.88;;;4.85;;
74634;SDS011;63140;56.306;43.984;2022-11-24T00:21:38;11.45;;;6.00;;
74634;SDS011;63140;56.306;43.984;2022-11-24T00:24:04;10.57;;;6.20;;
74634;SDS011;63140;56.306;43.984;2022-11-24T00:26:31;8.03;;;5.03;;
74634;SDS011;63140;56.306;43.984;2022-11-24T00:29:01;11.20;;;5.60;;
74634;SDS011;63140;56.306;43.984;2022-11-24T00:31:29;9.63;;;5.32;;
74634;SDS011;63140;56.306;43.984;2022-11-24T00:34:01;11.23;;;4.88;;
74634;SDS011;63140;56.306;43.984;2022-11-24T00:36:30;11.32;;;6.75;;
74634;SDS011;63140;56.306;43.984;2022-11-24T00:38:58;11.00;;;5.53;;
74634;SDS011;63140;56.306;43.984;2022-11-24T00:41:30;11.77;;;5.55;;
74634;SDS011;63140;56.306;43.984;2022-11-24T00:43:56;11.57;;;6.47;;
74634;SDS011;63140;56.306;43.984;2022-11-24T00:46:22;11.85;;;5.95;;
74634;SDS011;63140;56.306;43.984;2022-11-24T00:48:49;11.40;;;5.47;;
74634;SDS011;63140;56.306;43.984;2022-11-24T00:51:16;9.93;;;5.53;;
74634;SDS011;63140;56.306;43.984;2022-11-24T00:53:43;8.23;;;5.22;;
74634;SDS011;63140;56.306;43.984;2022-11-24T00:56:10;8.68;;;5.38;;
74634;SDS011;63140;56.306;43.984;2022-11-24T00:58:37;10.43;;;5.43;;
74634;SDS011;63140;56.306;43.984;2022-11-24T01:03:33;8.70;;;5.07;;
74634;SDS011;63140;56.306;43.984;2022-11-24T01:06:06;9.07;;;5.03;;
74634;SDS011;63140;56.306;43.984;2022-11-24T01:08:35;9.18;;;5.10;;
74634;SDS011;63140;56.306;43.984;2022-11-24T01:13:40;8.57;;;4.97;;
74634;SDS011;63140;56.306;43.984;2022-11-24T01:16:18;9.53;;;5.27;;
74634;SDS011;63140;56.306;43.984;2022-11-24T01:19:05;10.40;;;5.40;;
74634;SDS011;63140;56.306;43.984;2022-11-24T01:21:31;8.32;;;4.90;;
74634;SDS011;63140;56.306;43.984;2022-11-24T01:23:57;9.13;;;5.45;;
74634;SDS011;63140;56.306;43.984;2022-11-24T01:26:23;7.60;;;5.23;;
74634;SDS011;63140;56.306;43.984;2022-11-24T01:28:52;8.75;;;5.45;;
74634;SDS011;63140;56.306;43.984;2022-11-24T01:31:22;10.60;;;5.40;;
74634;SDS011;63140;56.306;43.984;2022-11-24T01:33:48;8.05;;;6.07;;
74634;SDS011;63140;56.306;43.984;2022-11-24T01:36:15;9.27;;;5.30;;
74634;SDS011;63140;56.306;43.984;2022-11-24T01:38:41;8.60;;;4.90;;
74634;SDS011;63140;56.306;43.984;2022-11-24T01:41:11;10.05;;;5.53;;
74634;SDS011;63140;56.306;43.984;2022-11-24T01:43:38;10.38;;;5.15;;
74634;SDS011;63140;56.306;43.984;2022-11-24T01:46:25;10.57;;;6.05;;
74634;SDS011;63140;56.306;43.984;2022-11-24T01:51:44;9.48;;;5.03;;
74634;SDS011;63140;56.306;43.984;2022-11-24T01:54:21;10.00;;;5.05;;
74634;SDS011;63140;56.306;43.984;2022-11-24T01:56:57;12.02;;;5.60;;
74634;SDS011;63140;56.306;43.984;2022-11-24T01:59:32;9.73;;;5.88;;
74634;SDS011;63140;56.306;43.984;2022-11-24T02:01:58;8.67;;;5.87;;
74634;SDS011;63140;56.306;43.984;2022-11-24T02:04:25;10.52;;;5.95;;
74634;SDS011;63140;56.306;43.984;2022-11-24T02:06:55;11.98;;;5.93;;
74634;SDS011;63140;56.306;43.984;2022-11-24T02:09:26;10.90;;;6.00;;
74634;SDS011;63140;56.306;43.984;2022-11-24T02:11:59;7.90;;;5.85;;
74634;SDS011;63140;56.306;43.984;2022-11-24T02:14:27;10.83;;;6.17;;
74634;SDS011;63140;56.306;43.984;2022-11-24T02:16:53;9.75;;;5.80;;
74634;SDS011;63140;56.306;43.984;2022-11-24T02:22:21;11.07;;;6.07;;
74634;SDS011;63140;56.306;43.984;2022-11-24T02:27:43;13.40;;;6.43;;
74634;SDS011;63140;56.306;43.984;2022-11-24T02:30:10;11.95;;;6.22;;
74634;SDS011;63140;56.306;43.984;2022-11-24T02:32:39;11.07;;;6.28;;
74634;SDS011;63140;56.306;43.984;2022-11-24T02:35:07;14.20;;;6.05;;
74634;SDS011;63140;56.306;43.984;2022-11-24T02:37:34;14.35;;;6.63;;
74634;SDS011;63140;56.306;43.984;2022-11-24T02:40:00;12.50;;;6.00;;
74634;SDS011;63140;56.306;43.984;2022-11-24T02:42:27;13.43;;;7.00;;
74634;SDS011;63140;56.306;43.984;2022-11-24T02:44:59;11.55;;;6.35;;
74634;SDS011;63140;56.306;43.984;2022-11-24T02:47:25;11.98;;;6.22;;
74634;SDS011;63140;56.306;43.984;2022-11-24T02:49:52;13.20;;;6.57;;
74634;SDS011;63140;56.306;43.984;2022-11-24T02:52:18;13.33;;;6.40;;
74634;SDS011;63140;56.306;43.984;2022-11-24T02:54:44;12.05;;;6.63;;
74634;SDS011;63140;56.306;43.984;2022-11-24T02:57:10;13.98;;;6.72;;
74634;SDS011;63140;56.306;43.984;2022-11-24T02:59:36;13.15;;;6.43;;
74634;SDS011;63140;56.306;43.984;2022-11-24T03:02:02;13.33;;;5.77;;
74634;SDS011;63140;56.306;43.984;2022-11-24T03:04:29;13.88;;;6.43;;
74634;SDS011;63140;56.306;43.984;2022-11-24T03:06:55;13.60;;;6.75;;
74634;SDS011;63140;56.306;43.984;2022-11-24T03:09:21;10.93;;;6.03;;
74634;SDS011;63140;56.306;43.984;2022-11-24T03:11:48;11.65;;;7.93;;
74634;SDS011;63140;56.306;43.984;2022-11-24T03:14:14;22.10;;;7.60;;
74634;SDS011;63140;56.306;43.984;2022-11-24T03:16:40;13.77;;;7.13;;
74634;SDS011;63140;56.306;43.984;2022-11-24T03:19:06;12.70;;;7.15;;
74634;SDS011;63140;56.306;43.984;2022-11-24T03:21:32;14.45;;;7.50;;
74634;SDS011;63140;56.306;43.984;2022-11-24T03:24:00;10.10;;;6.03;;
74634;SDS011;63140;56.306;43.984;2022-11-24T03:26:26;18.33;;;6.23;;
74634;SDS011;63140;56.306;43.984;2022-11-24T03:28:53;13.98;;;6.63;;
74634;SDS011;63140;56.306;43.984;2022-11-24T03:31:20;14.73;;;7.25;;
74634;SDS011;63140;56.306;43.984;2022-11-24T03:33:47;12.80;;;6.72;;
74634;SDS011;63140;56.306;43.984;2022-11-24T03:36:13;17.13;;;6.78;;
74634;SDS011;63140;56.306;43.984;2022-11-24T03:38:39;12.07;;;6.57;;
74634;SDS011;63140;56.306;43.984;2022-11-24T03:41:05;11.02;;;6.25;;
74634;SDS011;63140;56.306;43.984;2022-11-24T03:43:31;10.75;;;5.82;;
74634;SDS011;63140;56.306;43.984;2022-11-24T03:45:57;11.75;;;6.75;;
74634;SDS011;63140;56.306;43.984;2022-11-24T03:48:23;13.10;;;6.47;;
74634;SDS011;63140;56.306;43.984;2022-11-24T03:50:55;11.17;;;5.37;;
74634;SDS011;63140;56.306;43.984;2022-11-24T03:53:23;11.70;;;6.65;;
74634;SDS011;63140;56.306;43.984;2022-11-24T03:55:51;12.85;;;6.70;;
74634;SDS011;63140;56.306;43.984;2022-11-24T03:58:17;13.25;;;7.43;;
74634;SDS011;63140;56.306;43.984;2022-11-24T04:00:44;14.55;;;7.28;;
74634;SDS011;63140;56.306;43.984;2022-11-24T04:03:13;15.40;;;7.40;;
74634;SDS011;63140;56.306;43.984;2022-11-24T04:05:39;13.05;;;6.68;;
74634;SDS011;63140;56.306;43.984;2022-11-24T04:08:05;14.25;;;6.85;;
74634;SDS011;63140;56.306;43.984;2022-11-24T04:10:32;13.68;;;6.85;;
74634;SDS011;63140;56.306;43.984;2022-11-24T04:13:00;13.95;;;6.55;;
74634;SDS011;63140;56.306;43.984;2022-11-24T04:15:27;14.23;;;6.67;;
74634;SDS011;63140;56.306;43.984;2022-11-24T04:17:54;17.27;;;6.70;;
74634;SDS011;63140;56.306;43.984;2022-11-24T04:20:20;14.02;;;6.32;;
74634;SDS011;63140;56.306;43.984;2022-11-24T04:22:48;22.73;;;7.03;;
74634;SDS011;63140;56.306;43.984;2022-11-24T04:25:14;16.95;;;7.13;;
74634;SDS011;63140;56.306;43.984;2022-11-24T04:27:41;18.43;;;7.60;;
74634;SDS011;63140;56.306;43.984;2022-11-24T04:30:08;17.80;;;7.25;;
74634;SDS011;63140;56.306;43.984;2022-11-24T04:32:34;15.60;;;7.72;;
74634;SDS011;63140;56.306;43.984;2022-11-24T04:35:01;16.65;;;7.07;;
74634;SDS011;63140;56.306;43.984;2022-11-24T04:37:29;15.73;;;7.28;;
74634;SDS011;63140;56.306;43.984;2022-11-24T04:39:55;16.33;;;7.23;;
74634;SDS011;63140;56.306;43.984;2022-11-24T04:42:21;17.40;;;8.13;;
74634;SDS011;63140;56.306;43.984;2022-11-24T04:44:46;15.88;;;6.70;;
74634;SDS011;63140;56.306;43.984;2022-11-24T04:47:14;14.23;;;7.47;;
74634;SDS011;63140;56.306;43.984;2022-11-24T04:49:42;14.90;;;7.63;;
74634;SDS011;63140;56.306;43.984;2022-11-24T04:52:08;15.70;;;6.90;;
74634;SDS011;63140;56.306;43.984;2022-11-24T04:54:34;15.27;;;7.23;;
74634;SDS011;63140;56.306;43.984;2022-11-24T04:57:00;18.25;;;7.43;;
74634;SDS011;63140;56.306;43.984;2022-11-24T04:59:25;15.50;;;7.57;;
74634;SDS011;63140;56.306;43.984;2022-11-24T05:01:51;17.73;;;7.47;;
74634;SDS011;63140;56.306;43.984;2022-11-24T05:04:17;14.85;;;7.53;;
74634;SDS011;63140;56.306;43.984;2022-11-24T05:06:45;12.98;;;6.93;;
74634;SDS011;63140;56.306;43.984;2022-11-24T05:09:15;19.00;;;8.70;;
74634;SDS011;63140;56.306;43.984;2022-11-24T05:11:42;13.30;;;6.87;;
74634;SDS011;63140;56.306;43.984;2022-11-24T05:14:08;15.63;;;7.20;;
74634;SDS011;63140;56.306;43.984;2022-11-24T05:16:34;15.98;;;6.85;;
74634;SDS011;63140;56.306;43.984;2022-11-24T05:19:01;15.65;;;6.55;;
74634;SDS011;63140;56.306;43.984;2022-11-24T05:21:27;15.73;;;7.53;;
74634;SDS011;63140;56.306;43.984;2022-11-24T05:23:53;15.17;;;7.63;;
74634;SDS011;63140;56.306;43.984;2022-11-24T05:26:19;18.85;;;8.35;;
74634;SDS011;63140;56.306;43.984;2022-11-24T05:28:44;21.48;;;8.77;;
74634;SDS011;63140;56.306;43.984;2022-11-24T05:31:10;18.23;;;8.63;;
74634;SDS011;63140;56.306;43.984;2022-11-24T05:33:36;17.05;;;7.53;;
74634;SDS011;63140;56.306;43.984;2022-11-24T05:36:03;13.05;;;6.88;;
74634;SDS011;63140;56.306;43.984;2022-11-24T05:38:30;17.55;;;7.85;;
74634;SDS011;63140;56.306;43.984;2022-11-24T05:41:00;15.57;;;7.90;;
74634;SDS011;63140;56.306;43.984;2022-11-24T05:43:27;15.70;;;6.70;;
74634;SDS011;63140;56.306;43.984;2022-11-24T05:45:53;18.50;;;8.00;;
74634;SDS011;63140;56.306;43.984;2022-11-24T05:48:19;16.45;;;7.53;;
74634;SDS011;63140;56.306;43.984;2022-11-24T05:50:51;14.47;;;7.07;;
74634;SDS011;63140;56.306;43.984;2022-11-24T05:53:18;14.98;;;7.60;;
74634;SDS011;63140;56.306;43.984;2022-11-24T05:55:44;19.13;;;8.25;;
74634;SDS011;63140;56.306;43.984;2022-11-24T05:58:10;23.07;;;8.83;;
74634;SDS011;63140;56.306;43.984;2022-11-24T06:00:36;20.60;;;8.93;;
74634;SDS011;63140;56.306;43.984;2022-11-24T06:03:02;16.90;;;8.07;;
74634;SDS011;63140;56.306;43.984;2022-11-24T06:05:28;23.40;;;8.60;;
74634;SDS011;63140;56.306;43.984;2022-11-24T06:07:57;22.33;;;8.40;;
74634;SDS011;63140;56.306;43.984;2022-11-24T06:10:23;21.20;;;8.80;;
74634;SDS011;63140;56.306;43.984;2022-11-24T06:12:49;18.83;;;9.40;;
74634;SDS011;63140;56.306;43.984;2022-11-24T06:15:15;13.93;;;7.88;;
74634;SDS011;63140;56.306;43.984;2022-11-24T06:17:41;18.00;;;7.15;;
74634;SDS011;63140;56.306;43.984;2022-11-24T06:20:08;20.53;;;8.57;;
74634;SDS011;63140;56.306;43.984;2022-11-24T06:22:39;22.98;;;9.57;;
74634;SDS011;63140;56.306;43.984;2022-11-24T06:25:05;19.10;;;9.40;;
74634;SDS011;63140;56.306;43.984;2022-11-24T06:27:31;18.50;;;8.23;;
74634;SDS011;63140;56.306;43.984;2022-11-24T06:29:57;17.00;;;8.07;;
74634;SDS011;63140;56.306;43.984;2022-11-24T06:32:23;18.80;;;8.88;;
74634;SDS011;63140;56.306;43.984;2022-11-24T06:34:49;20.63;;;8.43;;
74634;SDS011;63140;56.306;43.984;2022-11-24T06:37:18;18.23;;;8.13;;
74634;SDS011;63140;56.306;43.984;2022-11-24T06:39:44;19.83;;;7.70;;
74634;SDS011;63140;56.306;43.984;2022-11-24T06:42:10;21.17;;;8.75;;
74634;SDS011;63140;56.306;43.984;2022-11-24T06:44:36;18.17;;;7.73;;
74634;SDS011;63140;56.306;43.984;2022-11-24T06:47:02;18.70;;;8.10;;
74634;SDS011;63140;56.306;43.984;2022-11-24T06:49:28;16.48;;;7.20;;
74634;SDS011;63140;56.306;43.984;2022-11-24T06:51:54;21.17;;;9.17;;
74634;SDS011;63140;56.306;43.984;2022-11-24T06:54:20;17.37;;;8.47;;
74634;SDS011;63140;56.306;43.984;2022-11-24T06:56:46;16.50;;;6.68;;
74634;SDS011;63140;56.306;43.984;2022-11-24T06:59:16;18.90;;;8.45;;
74634;SDS011;63140;56.306;43.984;2022-11-24T07:01:43;17.55;;;9.25;;
74634;SDS011;63140;56.306;43.984;2022-11-24T07:04:09;16.03;;;7.00;;
74634;SDS011;63140;56.306;43.984;2022-11-24T07:06:35;19.13;;;8.98;;
74634;SDS011;63140;56.306;43.984;2022-11-24T07:09:01;15.85;;;7.60;;
74634;SDS011;63140;56.306;43.984;2022-11-24T07:11:27;20.10;;;10.07;;
74634;SDS011;63140;56.306;43.984;2022-11-24T07:13:53;18.10;;;8.70;;
74634;SDS011;63140;56.306;43.984;2022-11-24T07:16:20;14.73;;;8.18;;
74634;SDS011;63140;56.306;43.984;2022-11-24T07:18:48;18.10;;;8.63;;
74634;SDS011;63140;56.306;43.984;2022-11-24T07:21:19;19.70;;;8.07;;
74634;SDS011;63140;56.306;43.984;2022-11-24T07:23:49;19.30;;;9.03;;
74634;SDS011;63140;56.306;43.984;2022-11-24T07:26:16;15.45;;;7.63;;
74634;SDS011;63140;56.306;43.984;2022-11-24T07:28:43;20.60;;;8.52;;
74634;SDS011;63140;56.306;43.984;2022-11-24T07:31:11;17.98;;;8.10;;
74634;SDS011;63140;56.306;43.984;2022-11-24T07:33:38;21.73;;;8.50;;
74634;SDS011;63140;56.306;43.984;2022-11-24T07:36:05;18.77;;;8.67;;
74634;SDS011;63140;56.306;43.984;2022-11-24T07:38:32;18.52;;;9.20;;
74634;SDS011;63140;56.306;43.984;2022-11-24T07:43:29;15.80;;;7.85;;
74634;SDS011;63140;56.306;43.984;2022-11-24T07:45:57;21.60;;;7.97;;
74634;SDS011;63140;56.306;43.984;2022-11-24T07:48:23;19.30;;;8.40;;
74634;SDS011;63140;56.306;43.984;2022-11-24T07:50:48;16.60;;;8.25;;
74634;SDS011;63140;56.306;43.984;2022-11-24T07:53:15;21.20;;;9.25;;
74634;SDS011;63140;56.306;43.984;2022-11-24T07:55:41;18.53;;;8.43;;
74634;SDS011;63140;56.306;43.984;2022-11-24T07:58:07;17.63;;;8.82;;
74634;SDS011;63140;56.306;43.984;2022-11-24T08:00:33;20.00;;;9.15;;
74634;SDS011;63140;56.306;43.984;2022-11-24T08:02:58;17.98;;;9.60;;
74634;SDS011;63140;56.306;43.984;2022-11-24T08:05:24;19.57;;;9.07;;
74634;SDS011;63140;56.306;43.984;2022-11-24T08:07:50;19.95;;;8.57;;
74634;SDS011;63140;56.306;43.984;2022-11-24T08:10:16;12.98;;;6.80;;
74634;SDS011;63140;56.306;43.984;2022-11-24T08:12:42;19.60;;;9.50;;
74634;SDS011;63140;56.306;43.984;2022-11-24T08:15:08;18.30;;;8.27;;
74634;SDS011;63140;56.306;43.984;2022-11-24T08:17:34;24.05;;;9.68;;
74634;SDS011;63140;56.306;43.984;2022-11-24T08:20:01;21.23;;;8.23;;
74634;SDS011;63140;56.306;43.984;2022-11-24T08:22:28;15.50;;;6.97;;
74634;SDS011;63140;56.306;43.984;2022-11-24T08:24:54;15.10;;;7.90;;
74634;SDS011;63140;56.306;43.984;2022-11-24T08:27:20;16.52;;;7.78;;
74634;SDS011;63140;56.306;43.984;2022-11-24T08:29:46;19.83;;;8.10;;
74634;SDS011;63140;56.306;43.984;2022-11-24T08:32:12;19.57;;;8.37;;
74634;SDS011;63140;56.306;43.984;2022-11-24T08:34:39;18.25;;;8.73;;
74634;SDS011;63140;56.306;43.984;2022-11-24T08:37:05;20.75;;;8.75;;
74634;SDS011;63140;56.306;43.984;2022-11-24T08:39:31;16.35;;;9.02;;
74634;SDS011;63140;56.306;43.984;2022-11-24T08:41:58;17.97;;;7.33;;
74634;SDS011;63140;56.306;43.984;2022-11-24T08:44:24;21.73;;;8.52;;
74634;SDS011;63140;56.306;43.984;2022-11-24T08:46:50;16.92;;;7.35;;
74634;SDS011;63140;56.306;43.984;2022-11-24T08:49:18;17.27;;;8.68;;
74634;SDS011;63140;56.306;43.984;2022-11-24T08:51:46;16.00;;;8.43;;
74634;SDS011;63140;56.306;43.984;2022-11-24T08:54:15;20.70;;;8.77;;
74634;SDS011;63140;56.306;43.984;2022-11-24T08:56:43;14.98;;;7.97;;
74634;SDS011;63140;56.306;43.984;2022-11-24T08:59:13;18.25;;;8.18;;
74634;SDS011;63140;56.306;43.984;2022-11-24T09:01:39;18.88;;;8.40;;
74634;SDS011;63140;56.306;43.984;2022-11-24T09:04:07;16.08;;;8.27;;
74634;SDS011;63140;56.306;43.984;2022-11-24T09:06:43;20.50;;;11.43;;
74634;SDS011;63140;56.306;43.984;2022-11-24T09:09:46;17.55;;;7.43;;
74634;SDS011;63140;56.306;43.984;2022-11-24T09:12:14;18.25;;;8.38;;
74634;SDS011;63140;56.306;43.984;2022-11-24T09:14:40;14.10;;;6.63;;
74634;SDS011;63140;56.306;43.984;2022-11-24T09:17:06;15.40;;;7.78;;
74634;SDS011;63140;56.306;43.984;2022-11-24T09:19:32;18.57;;;8.37;;
74634;SDS011;63140;56.306;43.984;2022-11-24T09:21:58;20.20;;;8.68;;
74634;SDS011;63140;56.306;43.984;2022-11-24T09:24:24;17.55;;;9.05;;
74634;SDS011;63140;56.306;43.984;2022-11-24T09:26:50;17.77;;;8.63;;
74634;SDS011;63140;56.306;43.984;2022-11-24T09:29:18;18.30;;;8.55;;
74634;SDS011;63140;56.306;43.984;2022-11-24T09:31:44;17.67;;;8.50;;
74634;SDS011;63140;56.306;43.984;2022-11-24T09:34:11;13.35;;;9.00;;
74634;SDS011;63140;56.306;43.984;2022-11-24T09:36:40;16.30;;;7.20;;
74634;SDS011;63140;56.306;43.984;2022-11-24T09:39:06;16.73;;;7.75;;
74634;SDS011;63140;56.306;43.984;2022-11-24T09:52:20;15.18;;;7.45;;
74634;SDS011;63140;56.306;43.984;2022-11-24T09:55:02;14.10;;;7.50;;
74634;SDS011;63140;56.306;43.984;2022-11-24T09:57:37;14.32;;;7.65;;
74634;SDS011;63140;56.306;43.984;2022-11-24T10:00:11;16.48;;;7.90;;
74634;SDS011;63140;56.306;43.984;2022-11-24T10:02:38;14.80;;;6.50;;
74634;SDS011;63140;56.306;43.984;2022-11-24T10:05:04;12.27;;;6.97;;
74634;SDS011;63140;56.306;43.984;2022-11-24T10:10:59;14.38;;;7.30;;
74634;SDS011;63140;56.306;43.984;2022-11-24T10:13:31;20.73;;;8.95;;
74634;SDS011;63140;56.306;43.984;2022-11-24T10:16:12;16.90;;;8.33;;
74634;SDS011;63140;56.306;43.984;2022-11-24T10:21:45;14.77;;;8.18;;
74634;SDS011;63140;56.306;43.984;2022-11-24T10:24:34;14.10;;;7.13;;
74634;SDS011;63140;56.306;43.984;2022-11-24T10:27:18;14.23;;;7.18;;
74634;SDS011;63140;56.306;43.984;2022-11-24T10:29:51;13.80;;;5.97;;
74634;SDS011;63140;56.306;43.984;2022-11-24T10:32:24;15.50;;;7.22;;
74634;SDS011;63140;56.306;43.984;2022-11-24T10:34:54;12.25;;;6.57;;
74634;SDS011;63140;56.306;43.984;2022-11-24T10:37:32;14.52;;;6.85;;
74634;SDS011;63140;56.306;43.984;2022-11-24T10:42:53;15.80;;;7.57;;
74634;SDS011;63140;56.306;43.984;2022-11-24T10:45:20;15.05;;;7.85;;
74634;SDS011;63140;56.306;43.984;2022-11-24T10:47:47;14.70;;;7.65;;
74634;SDS011;63140;56.306;43.984;2022-11-24T10:55:55;13.07;;;7.20;;
74634;SDS011;63140;56.306;43.984;2022-11-24T10:58:30;14.75;;;7.88;;
74634;SDS011;63140;56.306;43.984;2022-11-24T11:00:59;11.93;;;6.40;;
74634;SDS011;63140;56.306;43.984;2022-11-24T11:03:32;11.60;;;6.57;;
74634;SDS011;63140;56.306;43.984;2022-11-24T11:06:20;14.75;;;7.35;;
74634;SDS011;63140;56.306;43.984;2022-11-24T11:08:46;14.97;;;8.33;;
74634;SDS011;63140;56.306;43.984;2022-11-24T11:13:55;15.60;;;7.80;;
74634;SDS011;63140;56.306;43.984;2022-11-24T11:22:16;13.57;;;7.32;;
74634;SDS011;63140;56.306;43.984;2022-11-24T11:25:05;13.88;;;6.70;;
74634;SDS011;63140;56.306;43.984;2022-11-24T11:27:34;15.02;;;6.78;;
74634;SDS011;63140;56.306;43.984;2022-11-24T11:32:52;13.20;;;6.57;;
74634;SDS011;63140;56.306;43.984;2022-11-24T11:35:27;14.75;;;6.07;;
74634;SDS011;63140;56.306;43.984;2022-11-24T11:37:58;11.68;;;6.32;;
74634;SDS011;63140;56.306;43.984;2022-11-24T11:40:28;13.82;;;6.50;;
74634;SDS011;63140;56.306;43.984;2022-11-24T11:43:03;11.25;;;6.35;;
74634;SDS011;63140;56.306;43.984;2022-11-24T11:45:44;11.47;;;6.63;;
74634;SDS011;63140;56.306;43.984;2022-11-24T11:51:00;15.00;;;7.07;;
74634;SDS011;63140;56.306;43.984;2022-11-24T11:56:43;19.25;;;6.47;;
74634;SDS011;63140;56.306;43.984;2022-11-24T11:59:31;10.17;;;6.07;;
74634;SDS011;63140;56.306;43.984;2022-11-24T12:02:28;12.00;;;6.57;;
74634;SDS011;63140;56.306;43.984;2022-11-24T12:16:15;13.88;;;6.25;;
74634;SDS011;63140;56.306;43.984;2022-11-24T12:30:37;16.20;;;7.05;;
74634;SDS011;63140;56.306;43.984;2022-11-24T12:39:22;10.13;;;4.50;;
74634;SDS011;63140;56.306;43.984;2022-11-24T12:42:00;12.17;;;5.77;;
74634;SDS011;63140;56.306;43.984;2022-11-24T12:44:43;13.32;;;6.53;;
74634;SDS011;63140;56.306;43.984;2022-11-24T12:47:57;13.40;;;6.63;;
74634;SDS011;63140;56.306;43.984;2022-11-24T12:50:38;13.55;;;6.63;;
74634;SDS011;63140;56.306;43.984;2022-11-24T12:55:39;17.37;;;7.03;;
74634;SDS011;63140;56.306;43.984;2022-11-24T12:58:09;16.77;;;6.75;;
74634;SDS011;63140;56.306;43.984;2022-11-24T13:00:51;11.80;;;6.00;;
74634;SDS011;63140;56.306;43.984;2022-11-24T13:06:21;10.45;;;6.07;;
74634;SDS011;63140;56.306;43.984;2022-11-24T13:09:06;8.97;;;4.80;;
74634;SDS011;63140;56.306;43.984;2022-11-24T13:11:38;10.68;;;6.00;;
74634;SDS011;63140;56.306;43.984;2022-11-24T13:14:16;12.43;;;6.32;;
74634;SDS011;63140;56.306;43.984;2022-11-24T13:16:58;10.63;;;5.53;;
74634;SDS011;63140;56.306;43.984;2022-11-24T13:19:33;11.98;;;6.07;;
74634;SDS011;63140;56.306;43.984;2022-11-24T13:24:27;11.82;;;5.40;;
74634;SDS011;63140;56.306;43.984;2022-11-24T13:29:51;15.77;;;6.75;;
74634;SDS011;63140;56.306;43.984;2022-11-24T13:39:54;9.98;;;5.68;;
74634;SDS011;63140;56.306;43.984;2022-11-24T13:42:22;10.30;;;5.82;;
74634;SDS011;63140;56.306;43.984;2022-11-24T13:44:51;13.70;;;6.47;;
74634;SDS011;63140;56.306;43.984;2022-11-24T13:47:33;9.82;;;6.28;;
74634;SDS011;63140;56.306;43.984;2022-11-24T13:50:08;12.45;;;5.72;;
74634;SDS011;63140;56.306;43.984;2022-11-24T13:52:41;14.07;;;6.45;;
74634;SDS011;63140;56.306;43.984;2022-11-24T13:57:38;10.43;;;6.17;;
74634;SDS011;63140;56.306;43.984;2022-11-24T14:00:20;11.20;;;5.85;;
74634;SDS011;63140;56.306;43.984;2022-11-24T14:02:48;10.93;;;5.75;;
74634;SDS011;63140;56.306;43.984;2022-11-24T14:05:17;13.55;;;6.43;;
74634;SDS011;63140;56.306;43.984;2022-11-24T14:07:47;11.23;;;6.43;;
74634;SDS011;63140;56.306;43.984;2022-11-24T14:10:19;11.07;;;6.40;;
74634;SDS011;63140;56.306;43.984;2022-11-24T14:18:35;10.05;;;5.22;;
74634;SDS011;63140;56.306;43.984;2022-11-24T14:26:39;11.48;;;6.18;;
74634;SDS011;63140;56.306;43.984;2022-11-24T14:29:10;11.75;;;6.28;;
74634;SDS011;63140;56.306;43.984;2022-11-24T14:31:39;9.35;;;5.68;;
74634;SDS011;63140;56.306;43.984;2022-11-24T14:34:19;10.15;;;6.35;;
74634;SDS011;63140;56.306;43.984;2022-11-24T14:36:46;12.30;;;6.13;;
74634;SDS011;63140;56.306;43.984;2022-11-24T14:39:13;9.68;;;6.05;;
74634;SDS011;63140;56.306;43.984;2022-11-24T14:44:51;11.00;;;5.93;;
74634;SDS011;63140;56.306;43.984;2022-11-24T14:49:46;9.30;;;5.43;;
74634;SDS011;63140;56.306;43.984;2022-11-24T14:52:14;11.40;;;5.55;;
74634;SDS011;63140;56.306;43.984;2022-11-24T14:54:44;11.07;;;6.43;;
74634;SDS011;63140;56.306;43.984;2022-11-24T14:57:21;11.27;;;6.22;;
74634;SDS011;63140;56.306;43.984;2022-11-24T15:02:50;12.57;;;6.37;;
74634;SDS011;63140;56.306;43.984;2022-11-24T15:05:19;11.88;;;6.18;;
74634;SDS011;63140;56.306;43.984;2022-11-24T15:07:48;9.40;;;5.43;;
74634;SDS011;63140;56.306;43.984;2022-11-24T15:10:17;9.98;;;5.47;;
74634;SDS011;63140;56.306;43.984;2022-11-24T15:12:50;10.57;;;6.07;;
74634;SDS011;63140;56.306;43.984;2022-11-24T15:15:22;9.70;;;5.37;;
74634;SDS011;63140;56.306;43.984;2022-11-24T15:17:56;10.13;;;5.85;;
74634;SDS011;63140;56.306;43.984;2022-11-24T15:20:25;12.10;;;6.18;;
74634;SDS011;63140;56.306;43.984;2022-11-24T15:25:40;9.68;;;5.60;;
74634;SDS011;63140;56.306;43.984;2022-11-24T15:28:07;9.93;;;6.43;;
74634;SDS011;63140;56.306;43.984;2022-11-24T15:30:34;11.00;;;6.53;;
74634;SDS011;63140;56.306;43.984;2022-11-24T15:33:01;13.43;;;6.90;;
74634;SDS011;63140;56.306;43.984;2022-11-24T15:35:28;10.80;;;5.70;;
74634;SDS011;63140;56.306;43.984;2022-11-24T15:37:56;10.48;;;5.72;;
74634;SDS011;63140;56.306;43.984;2022-11-24T15:40:22;11.30;;;6.17;;
74634;SDS011;63140;56.306;43.984;2022-11-24T15:42:49;9.00;;;5.80;;
74634;SDS011;63140;56.306;43.984;2022-11-24T15:45:17;11.85;;;5.88;;
74634;SDS011;63140;56.306;43.984;2022-11-24T15:47:43;9.57;;;5.80;;
74634;SDS011;63140;56.306;43.984;2022-11-24T15:50:09;12.50;;;6.30;;
74634;SDS011;63140;56.306;43.984;2022-11-24T15:52:35;10.98;;;6.10;;
74634;SDS011;63140;56.306;43.984;2022-11-24T15:55:01;8.73;;;5.82;;
74634;SDS011;63140;56.306;43.984;2022-11-24T15:57:28;10.60;;;6.05;;
74634;SDS011;63140;56.306;43.984;2022-11-24T15:59:55;11.52;;;5.95;;
74634;SDS011;63140;56.306;43.984;2022-11-24T16:02:21;12.37;;;6.57;;
74634;SDS011;63140;56.306;43.984;2022-11-24T16:04:47;13.40;;;6.20;;
74634;SDS011;63140;56.306;43.984;2022-11-24T16:07:13;11.60;;;6.30;;
74634;SDS011;63140;56.306;43.984;2022-11-24T16:09:39;8.55;;;6.15;;
74634;SDS011;63140;56.306;43.984;2022-11-24T16:12:05;9.67;;;5.90;;
74634;SDS011;63140;56.306;43.984;2022-11-24T16:14:33;11.65;;;6.80;;
74634;SDS011;63140;56.306;43.984;2022-11-24T16:16:59;11.77;;;5.63;;
74634;SDS011;63140;56.306;43.984;2022-11-24T16:19:25;12.48;;;7.10;;
74634;SDS011;63140;56.306;43.984;2022-11-24T16:21:51;11.33;;;5.67;;
74634;SDS011;63140;56.306;43.984;2022-11-24T16:24:17;10.65;;;5.57;;
74634;SDS011;63140;56.306;43.984;2022-11-24T16:26:43;11.67;;;6.17;;
74634;SDS011;63140;56.306;43.984;2022-11-24T16:29:08;9.15;;;5.25;;
74634;SDS011;63140;56.306;43.984;2022-11-24T16:31:34;9.32;;;5.13;;
74634;SDS011;63140;56.306;43.984;2022-11-24T16:34:01;10.37;;;5.70;;
74634;SDS011;63140;56.306;43.984;2022-11-24T16:36:26;10.02;;;5.07;;
74634;SDS011;63140;56.306;43.984;2022-11-24T16:38:52;11.02;;;6.15;;
74634;SDS011;63140;56.306;43.984;2022-11-24T16:41:18;9.13;;;5.95;;
74634;SDS011;63140;56.306;43.984;2022-11-24T16:43:46;11.93;;;5.67;;
74634;SDS011;63140;56.306;43.984;2022-11-24T16:46:16;9.90;;;4.97;;